createdAt,value
2019-04-28T00:00:41.157Z,85.89
2019-04-28T00:01:41.053Z,85.78
2019-04-28T00:02:40.813Z,86.03
2019-04-28T00:03:41.841Z,86.34
2019-04-28T00:04:41.417Z,86.51
2019-04-28T00:05:41.515Z,85.78
2019-04-28T00:06:41.654Z,85.58
2019-04-28T00:07:41.095Z,86.03
2019-04-28T00:08:39.820Z,85.83
2019-04-28T00:09:41.498Z,85.58
2019-04-28T00:10:41.716Z,85.83
2019-04-28T00:11:41.584Z,85.62
2019-04-28T00:12:41.262Z,86.24
2019-04-28T00:13:41.579Z,84.89
2019-04-28T00:14:41.647Z,85.62
2019-04-28T00:15:41.537Z,86.03
2019-04-28T00:16:41.154Z,85.83
2019-04-28T00:17:39.688Z,85.72
2019-04-28T00:18:41.331Z,85.52
2019-04-28T00:19:40.875Z,85.93
2019-04-28T00:20:40.868Z,86.55
2019-04-28T00:21:41.361Z,86.55
2019-04-28T00:22:39.619Z,86.76
2019-04-28T00:23:39.594Z,85.83
2019-04-28T00:24:41.485Z,85.83
2019-04-28T00:25:41.071Z,85.93
2019-04-28T00:26:40.998Z,86.44
2019-04-28T00:27:41.385Z,86.34
2019-04-28T00:28:41.318Z,86.24
2019-04-28T00:29:43.525Z,85.93
2019-04-28T00:30:41.721Z,85.72
2019-04-28T00:31:41.178Z,85.93
2019-04-28T00:32:39.491Z,85.83
2019-04-28T00:33:41.023Z,85.93
2019-04-28T00:34:41.290Z,86.44
2019-04-28T00:35:39.467Z,85.93
2019-04-28T00:36:42.554Z,85.45
2019-04-28T00:37:39.467Z,86.55
2019-04-28T00:38:41.371Z,86.38
2019-04-28T00:39:40.956Z,86.59
2019-04-28T00:40:41.253Z,86.90
2019-04-28T00:41:39.448Z,86.79
2019-04-28T00:42:41.233Z,86.79
2019-04-28T00:43:39.386Z,86.79
2019-04-28T00:44:39.358Z,87.00
2019-04-28T00:45:41.232Z,86.59
2019-04-28T00:46:41.061Z,86.49
2019-04-28T00:47:41.266Z,87.00
2019-04-28T00:48:40.929Z,86.59
2019-04-28T00:49:39.320Z,87.31
2019-04-28T00:50:39.295Z,87.73
2019-04-28T00:51:41.343Z,87.93
2019-04-28T00:52:39.306Z,87.41
2019-04-28T00:53:40.875Z,87.52
2019-04-28T00:54:39.244Z,87.83
2019-04-28T00:55:39.243Z,87.93
2019-04-28T00:56:39.209Z,87.73
2019-04-28T00:57:40.896Z,88.34
2019-04-28T00:58:39.249Z,87.62
2019-04-28T00:59:52.202Z,88.04
2019-04-28T01:00:41.448Z,87.93
2019-04-28T01:01:40.719Z,88.55
2019-04-28T01:02:41.106Z,88.55
2019-04-28T01:03:39.145Z,88.45
2019-04-28T01:04:39.144Z,88.86
2019-04-28T01:05:41.047Z,88.14
2019-04-28T01:06:39.119Z,88.65
2019-04-28T01:07:41.186Z,88.76
2019-04-28T01:08:39.087Z,88.65
2019-04-28T01:09:39.128Z,88.76
2019-04-28T01:10:40.893Z,88.76
2019-04-28T01:11:39.049Z,88.45
2019-04-28T01:12:40.592Z,87.93
2019-04-28T01:13:39.029Z,88.14
2019-04-28T01:14:40.968Z,87.83
2019-04-28T01:15:39.630Z,87.66
2019-04-28T01:16:40.056Z,87.76
2019-04-28T01:17:39.767Z,88.28
2019-04-28T01:18:40.460Z,88.28
2019-04-28T01:19:39.820Z,88.18
2019-04-28T01:20:39.661Z,88.28
2019-04-28T01:21:41.567Z,87.87
2019-04-28T01:22:40.186Z,87.97
2019-04-28T01:23:40.260Z,88.07
2019-04-28T01:24:39.747Z,88.28
2019-04-28T01:25:40.127Z,89.04
2019-04-28T01:26:39.225Z,88.84
2019-04-28T01:27:40.295Z,88.80
2019-04-28T01:28:39.783Z,88.74
2019-04-28T01:29:40.281Z,88.84
2019-04-28T01:30:40.110Z,89.04
2019-04-28T01:31:39.634Z,88.94
2019-04-28T01:32:39.956Z,88.74
2019-04-28T01:33:40.519Z,88.84
2019-04-28T01:34:39.987Z,89.04
2019-04-28T01:35:39.705Z,89.36
2019-04-28T01:36:39.984Z,89.25
2019-04-28T01:37:40.588Z,89.40
2019-04-28T01:38:40.189Z,89.36
2019-04-28T01:39:40.981Z,89.40
2019-04-28T01:40:38.720Z,89.09
2019-04-28T01:41:39.781Z,89.40
2019-04-28T01:42:38.784Z,89.77
2019-04-28T01:43:38.695Z,89.92
2019-04-28T01:44:39.549Z,90.12
2019-04-28T01:45:39.891Z,90.23
2019-04-28T01:46:39.893Z,90.23
2019-04-28T01:47:40.429Z,90.12
2019-04-28T01:48:39.801Z,89.77
2019-04-28T01:49:40.429Z,90.23
2019-04-28T01:50:40.000Z,88.94
2019-04-28T01:51:38.601Z,88.88
2019-04-28T01:52:39.930Z,89.04
2019-04-28T01:53:39.566Z,89.15
2019-04-28T01:54:40.325Z,89.15
2019-04-28T01:55:39.553Z,89.04
2019-04-28T01:56:40.283Z,88.94
2019-04-28T01:57:39.999Z,89.15
2019-04-28T01:58:40.235Z,89.04
2019-04-28T01:59:40.352Z,89.36
2019-04-28T02:00:40.422Z,89.56
2019-04-28T02:01:39.984Z,90.08
2019-04-28T02:02:38.471Z,90.29
2019-04-28T02:03:40.307Z,89.25
2019-04-28T02:04:40.166Z,89.04
2019-04-28T02:05:40.408Z,88.74
2019-04-28T02:06:39.892Z,89.15
2019-04-28T02:07:40.595Z,89.15
2019-04-28T02:08:39.899Z,89.11
2019-04-28T02:09:39.589Z,89.36
2019-04-28T02:10:40.180Z,89.15
2019-04-28T02:11:39.163Z,89.25
2019-04-28T02:12:39.907Z,89.11
2019-04-28T02:13:39.792Z,89.32
2019-04-28T02:14:40.258Z,89.42
2019-04-28T02:15:40.038Z,88.90
2019-04-28T02:16:38.369Z,89.42
2019-04-28T02:17:40.009Z,89.01
2019-04-28T02:18:39.861Z,89.22
2019-04-28T02:19:38.276Z,89.11
2019-04-28T02:20:39.750Z,88.43
2019-04-28T02:21:39.538Z,89.22
2019-04-28T02:22:40.013Z,88.90
2019-04-28T02:23:39.711Z,88.90
2019-04-28T02:24:38.301Z,89.11
2019-04-28T02:25:39.884Z,89.01
2019-04-28T02:26:40.184Z,89.22
2019-04-28T02:27:39.936Z,89.01
2019-04-28T02:28:38.170Z,89.01
2019-04-28T02:29:41.404Z,89.01
2019-04-28T02:30:47.887Z,89.62
2019-04-28T02:31:41.910Z,89.52
2019-04-28T02:32:40.728Z,89.32
2019-04-28T02:33:40.683Z,89.83
2019-04-28T02:34:40.716Z,89.83
2019-04-28T02:35:38.181Z,90.56
2019-04-28T02:36:40.561Z,89.22
2019-04-28T02:37:40.371Z,90.14
2019-04-28T02:38:38.115Z,89.11
2019-04-28T02:39:40.633Z,89.11
2019-04-28T02:40:40.417Z,88.90
2019-04-28T02:41:40.945Z,90.04
2019-04-28T02:42:40.707Z,89.94
2019-04-28T02:43:40.692Z,90.04
2019-04-28T02:44:40.268Z,90.14
2019-04-28T02:45:41.005Z,89.22
2019-04-28T02:46:40.565Z,90.25
2019-04-28T02:47:37.971Z,90.04
2019-04-28T02:48:40.326Z,89.94
2019-04-28T02:49:40.364Z,89.52
2019-04-28T02:50:37.942Z,90.04
2019-04-28T02:51:40.506Z,89.32
2019-04-28T02:52:37.898Z,89.22
2019-04-28T02:53:40.663Z,89.11
2019-04-28T02:54:40.287Z,89.32
2019-04-28T02:55:37.900Z,89.22
2019-04-28T02:56:43.399Z,90.25
2019-04-28T02:57:40.594Z,90.04
2019-04-28T02:58:37.829Z,89.94
2019-04-28T02:59:41.016Z,90.14
2019-04-28T03:00:37.845Z,90.14
2019-04-28T03:01:40.726Z,90.04
2019-04-28T03:02:37.814Z,90.14
2019-04-28T03:03:37.778Z,89.11
2019-04-28T03:04:40.596Z,90.14
2019-04-28T03:05:37.746Z,90.14
2019-04-28T03:06:40.528Z,89.94
2019-04-28T03:07:37.737Z,90.14
2019-04-28T03:08:40.248Z,90.04
2019-04-28T03:09:40.187Z,90.25
2019-04-28T03:10:37.734Z,90.04
2019-04-28T03:11:37.691Z,90.25
2019-04-28T03:12:37.728Z,90.14
2019-04-28T03:13:37.667Z,89.83
2019-04-28T03:14:43.334Z,89.52
2019-04-28T03:15:37.670Z,89.01
2019-04-28T03:16:37.623Z,89.94
2019-04-28T03:17:40.393Z,89.32
2019-04-28T03:18:37.647Z,89.11
2019-04-28T03:19:37.598Z,89.11
2019-04-28T03:20:37.594Z,89.22
2019-04-28T03:21:37.586Z,89.01
2019-04-28T03:22:37.574Z,89.01
2019-04-28T03:23:40.400Z,88.90
2019-04-28T03:24:37.547Z,88.86
2019-04-28T03:25:40.540Z,89.28
2019-04-28T03:26:37.548Z,89.32
2019-04-28T03:27:37.535Z,88.55
2019-04-28T03:28:37.501Z,88.80
2019-04-28T03:29:37.516Z,88.59
2019-04-28T03:30:37.471Z,88.39
2019-04-28T03:32:07.186Z,88.65
2019-04-28T03:32:51.746Z,88.59
2019-04-28T03:33:48.037Z,89.11
2019-04-28T03:34:42.869Z,89.11
2019-04-28T03:35:38.415Z,89.11
2019-04-28T03:36:37.416Z,89.11
2019-04-28T03:37:37.396Z,89.01
2019-04-28T03:38:37.389Z,89.01
2019-04-28T03:39:37.381Z,89.32
2019-04-28T03:40:37.383Z,89.11
2019-04-28T03:41:37.357Z,88.90
2019-04-28T03:42:37.339Z,88.39
2019-04-28T03:43:37.371Z,88.76
2019-04-28T03:44:37.317Z,88.65
2019-04-28T03:45:37.344Z,88.86
2019-04-28T03:46:37.282Z,88.34
2019-04-28T03:47:37.278Z,88.28
2019-04-28T03:48:37.312Z,88.76
2019-04-28T03:49:37.270Z,88.96
2019-04-28T03:50:38.003Z,88.59
2019-04-28T03:51:37.238Z,89.38
2019-04-28T03:52:37.258Z,88.45
2019-04-28T03:53:37.208Z,88.86
2019-04-28T03:54:37.198Z,88.76
2019-04-28T03:55:37.201Z,89.07
2019-04-28T03:56:37.947Z,88.76
2019-04-28T03:57:37.159Z,89.07
2019-04-28T03:58:37.167Z,89.17
2019-04-28T03:59:37.142Z,88.65
2019-04-28T04:00:37.132Z,88.14
2019-04-28T04:01:53.101Z,88.14
2019-04-28T04:02:40.905Z,87.83
2019-04-28T04:03:37.089Z,88.14
2019-04-28T04:04:37.086Z,87.93
2019-04-28T04:05:37.070Z,88.14
2019-04-28T04:06:37.067Z,88.34
2019-04-28T04:07:37.082Z,88.04
2019-04-28T04:08:37.087Z,88.24
2019-04-28T04:09:37.036Z,88.34
2019-04-28T04:10:37.018Z,88.34
2019-04-28T04:11:37.015Z,88.14
2019-04-28T04:12:37.000Z,87.93
2019-04-28T04:13:37.025Z,87.76
2019-04-28T04:14:37.021Z,88.14
2019-04-28T04:15:36.956Z,88.49
2019-04-28T04:16:36.976Z,87.93
2019-04-28T04:17:36.953Z,87.31
2019-04-28T04:18:36.959Z,87.73
2019-04-28T04:19:36.969Z,88.39
2019-04-28T04:20:36.913Z,88.34
2019-04-28T04:21:36.899Z,89.07
2019-04-28T04:22:36.891Z,88.90
2019-04-28T04:23:36.896Z,88.59
2019-04-28T04:24:36.859Z,88.24
2019-04-28T04:25:36.911Z,88.24
2019-04-28T04:26:36.838Z,88.65
2019-04-28T04:27:36.826Z,88.76
2019-04-28T04:28:36.817Z,88.04
2019-04-28T04:29:36.841Z,88.39
2019-04-28T04:30:36.813Z,88.14
2019-04-28T04:31:36.808Z,87.93
2019-04-28T04:32:36.784Z,88.14
2019-04-28T04:33:36.763Z,88.24
2019-04-28T04:34:36.795Z,88.55
2019-04-28T04:35:36.725Z,87.93
2019-04-28T04:36:36.736Z,88.45
2019-04-28T04:37:36.732Z,88.65
2019-04-28T04:38:40.031Z,88.55
2019-04-28T04:39:40.526Z,87.93
2019-04-28T04:40:36.673Z,88.04
2019-04-28T04:41:36.716Z,88.24
2019-04-28T04:42:37.456Z,88.24
2019-04-28T04:43:36.666Z,88.04
2019-04-28T04:44:40.611Z,88.04
2019-04-28T04:45:36.659Z,87.99
2019-04-28T04:46:36.600Z,88.45
2019-04-28T04:47:36.633Z,87.89
2019-04-28T04:48:36.594Z,87.07
2019-04-28T04:49:36.568Z,86.90
2019-04-28T04:50:36.568Z,86.76
2019-04-28T04:51:36.551Z,86.59
2019-04-28T04:52:36.583Z,86.69
2019-04-28T04:53:36.561Z,85.86
2019-04-28T04:54:36.939Z,86.18
2019-04-28T04:55:36.507Z,86.38
2019-04-28T04:56:36.516Z,86.44
2019-04-28T04:57:36.552Z,86.49
2019-04-28T04:58:36.498Z,86.65
2019-04-28T04:59:36.452Z,86.69
2019-04-28T05:00:36.453Z,86.18
2019-04-28T05:01:36.474Z,86.59
2019-04-28T05:02:36.448Z,86.49
2019-04-28T05:03:36.459Z,87.10
2019-04-28T05:04:36.414Z,86.69
2019-04-28T05:05:36.392Z,86.69
2019-04-28T05:06:36.384Z,86.59
2019-04-28T05:07:36.412Z,86.79
2019-04-28T05:08:36.396Z,86.79
2019-04-28T05:09:36.386Z,86.38
2019-04-28T05:10:36.353Z,86.59
2019-04-28T05:11:36.323Z,87.73
2019-04-28T05:12:36.351Z,86.59
2019-04-28T05:13:36.311Z,86.59
2019-04-28T05:14:36.291Z,86.69
2019-04-28T05:15:36.342Z,86.49
2019-04-28T05:16:36.266Z,85.76
2019-04-28T05:17:36.254Z,86.07
2019-04-28T05:18:36.241Z,86.49
2019-04-28T05:19:36.293Z,86.44
2019-04-28T05:20:36.272Z,86.07
2019-04-28T05:21:36.216Z,85.97
2019-04-28T05:22:36.213Z,85.55
2019-04-28T05:23:36.178Z,85.76
2019-04-28T05:24:36.183Z,85.31
2019-04-28T05:25:36.279Z,85.35
2019-04-28T05:26:36.188Z,86.03
2019-04-28T05:27:36.200Z,85.62
2019-04-28T05:28:36.850Z,85.76
2019-04-28T05:29:37.140Z,86.44
2019-04-28T05:30:39.657Z,85.86
2019-04-28T05:31:37.169Z,86.28
2019-04-28T05:32:44.752Z,86.34
2019-04-28T05:33:37.086Z,86.65
2019-04-28T05:34:41.392Z,85.93
2019-04-28T05:35:37.089Z,85.83
2019-04-28T05:36:40.959Z,86.44
2019-04-28T05:37:36.068Z,86.34
2019-04-28T05:38:36.018Z,86.65
2019-04-28T05:39:37.884Z,85.83
2019-04-28T05:40:36.019Z,86.03
2019-04-28T05:41:35.989Z,85.31
2019-04-28T05:42:35.976Z,85.31
2019-04-28T05:43:36.043Z,85.83
2019-04-28T05:44:37.614Z,85.93
2019-04-28T05:45:35.955Z,85.31
2019-04-28T05:46:35.982Z,86.03
2019-04-28T05:47:35.925Z,85.83
2019-04-28T05:48:35.954Z,85.41
2019-04-28T05:49:35.894Z,85.52
2019-04-28T05:50:35.919Z,85.41
2019-04-28T05:51:35.874Z,85.72
2019-04-28T05:52:35.860Z,85.93
2019-04-28T05:53:35.854Z,85.00
2019-04-28T05:54:35.865Z,85.93
2019-04-28T05:55:35.836Z,85.41
2019-04-28T05:56:35.820Z,85.83
2019-04-28T05:57:37.563Z,85.62
2019-04-28T05:58:35.811Z,85.72
2019-04-28T05:59:35.834Z,85.41
2019-04-28T06:00:35.770Z,86.24
2019-04-28T06:01:35.758Z,85.93
2019-04-28T06:02:35.760Z,85.72
2019-04-28T06:03:35.751Z,85.37
2019-04-28T06:04:35.752Z,85.21
2019-04-28T06:05:35.775Z,84.55
2019-04-28T06:06:35.715Z,84.75
2019-04-28T06:07:35.679Z,85.06
2019-04-28T06:08:35.685Z,86.20
2019-04-28T06:09:35.676Z,85.37
2019-04-28T06:10:35.698Z,84.86
2019-04-28T06:11:35.660Z,85.06
2019-04-28T06:12:35.635Z,84.86
2019-04-28T06:13:35.617Z,84.75
2019-04-28T06:14:35.612Z,84.86
2019-04-28T06:15:35.603Z,84.34
2019-04-28T06:16:35.607Z,84.96
2019-04-28T06:17:35.577Z,84.89
2019-04-28T06:18:35.564Z,84.75
2019-04-28T06:19:35.619Z,84.96
2019-04-28T06:20:35.551Z,84.55
2019-04-28T06:21:35.553Z,83.72
2019-04-28T06:22:35.550Z,85.06
2019-04-28T06:23:35.521Z,85.06
2019-04-28T06:24:35.488Z,84.65
2019-04-28T06:25:35.489Z,84.44
2019-04-28T06:26:35.506Z,84.07
2019-04-28T06:27:35.495Z,83.45
2019-04-28T06:28:35.443Z,83.41
2019-04-28T06:29:35.445Z,85.17
2019-04-28T06:30:35.427Z,84.59
2019-04-28T06:31:35.453Z,84.75
2019-04-28T06:32:35.411Z,84.13
2019-04-28T06:33:35.434Z,84.86
2019-04-28T06:34:35.386Z,85.06
2019-04-28T06:35:35.369Z,84.72
2019-04-28T06:36:35.403Z,85.27
2019-04-28T06:37:35.338Z,84.41
2019-04-28T06:38:35.433Z,83.93
2019-04-28T06:39:35.326Z,83.37
2019-04-28T06:40:35.324Z,84.61
2019-04-28T06:41:35.309Z,84.20
2019-04-28T06:42:35.313Z,84.51
2019-04-28T06:43:35.290Z,83.89
2019-04-28T06:44:35.300Z,83.78
2019-04-28T06:45:35.320Z,83.78
2019-04-28T06:46:35.291Z,83.37
2019-04-28T06:47:35.232Z,83.78
2019-04-28T06:48:35.284Z,84.20
2019-04-28T06:49:35.246Z,82.96
2019-04-28T06:50:35.195Z,83.27
2019-04-28T06:51:35.196Z,83.89
2019-04-28T06:52:35.246Z,84.20
2019-04-28T06:53:35.174Z,83.17
2019-04-28T06:54:35.155Z,82.96
2019-04-28T06:55:35.164Z,84.51
2019-04-28T06:56:35.142Z,84.51
2019-04-28T06:57:35.142Z,83.48
2019-04-28T06:58:35.104Z,84.09
2019-04-28T06:59:35.111Z,83.68
2019-04-28T07:00:35.104Z,83.48
2019-04-28T07:01:35.102Z,84.51
2019-04-28T07:02:35.069Z,83.48
2019-04-28T07:03:35.050Z,84.20
2019-04-28T07:04:35.043Z,84.51
2019-04-28T07:05:35.052Z,83.27
2019-04-28T07:06:35.026Z,84.09
2019-04-28T07:07:35.039Z,83.99
2019-04-28T07:08:34.996Z,83.06
2019-04-28T07:09:34.986Z,83.37
2019-04-28T07:10:34.975Z,83.58
2019-04-28T07:11:34.977Z,83.17
2019-04-28T07:12:35.011Z,83.89
2019-04-28T07:13:34.962Z,83.78
2019-04-28T07:14:34.937Z,83.99
2019-04-28T07:15:34.964Z,83.27
2019-04-28T07:16:34.929Z,83.27
2019-04-28T07:17:34.909Z,83.58
2019-04-28T07:18:34.934Z,83.27
2019-04-28T07:19:34.871Z,83.78
2019-04-28T07:20:34.861Z,83.99
2019-04-28T07:21:34.859Z,83.99
2019-04-28T07:22:34.855Z,83.48
2019-04-28T07:23:34.818Z,83.68
2019-04-28T07:24:34.825Z,83.48
2019-04-28T07:25:34.828Z,83.37
2019-04-28T07:26:34.795Z,83.17
2019-04-28T07:27:34.809Z,84.09
2019-04-28T07:28:34.780Z,82.24
2019-04-28T07:29:34.831Z,83.06
2019-04-28T07:30:34.785Z,83.78
2019-04-28T07:31:34.743Z,83.37
2019-04-28T07:32:34.727Z,83.17
2019-04-28T07:33:36.177Z,84.09
2019-04-28T07:34:34.722Z,83.89
2019-04-28T07:35:34.725Z,83.78
2019-04-28T07:36:34.707Z,83.89
2019-04-28T07:37:34.670Z,83.95
2019-04-28T07:38:34.693Z,83.68
2019-04-28T07:39:34.646Z,83.64
2019-04-28T07:40:34.676Z,83.99
2019-04-28T07:41:34.625Z,83.85
2019-04-28T07:42:34.679Z,83.44
2019-04-28T07:43:34.603Z,83.44
2019-04-28T07:44:34.613Z,84.88
2019-04-28T07:45:34.582Z,84.57
2019-04-28T07:46:34.592Z,83.95
2019-04-28T07:47:34.627Z,84.47
2019-04-28T07:48:34.545Z,84.06
2019-04-28T07:49:34.544Z,83.44
2019-04-28T07:50:34.535Z,81.79
2019-04-28T07:51:34.575Z,82.03
2019-04-28T07:52:34.489Z,82.86
2019-04-28T07:53:34.501Z,83.95
2019-04-28T07:54:34.503Z,83.78
2019-04-28T07:55:34.477Z,83.95
2019-04-28T07:56:34.463Z,83.95
2019-04-28T07:57:34.512Z,83.33
2019-04-28T07:58:34.427Z,83.23
2019-04-28T07:59:34.442Z,84.06
2019-04-28T08:00:34.401Z,83.75
2019-04-28T08:01:34.396Z,83.09
2019-04-28T08:02:34.396Z,83.75
2019-04-28T08:03:34.381Z,83.95
2019-04-28T08:04:34.453Z,83.13
2019-04-28T08:05:34.344Z,83.54
2019-04-28T08:06:34.356Z,84.16
2019-04-28T08:07:34.333Z,83.75
2019-04-28T08:08:34.331Z,83.64
2019-04-28T08:09:34.311Z,84.67
2019-04-28T08:10:34.293Z,84.06
2019-04-28T08:11:34.321Z,83.27
2019-04-28T08:12:34.287Z,83.89
2019-04-28T08:13:34.301Z,84.51
2019-04-28T08:14:34.243Z,84.06
2019-04-28T08:15:34.327Z,83.64
2019-04-28T08:16:34.233Z,83.23
2019-04-28T08:17:34.235Z,83.23
2019-04-28T08:18:34.200Z,83.85
2019-04-28T08:19:34.208Z,83.75
2019-04-28T08:20:34.207Z,83.68
2019-04-28T08:21:34.283Z,83.54
2019-04-28T08:22:34.214Z,83.44
2019-04-28T08:23:46.327Z,83.64
2019-04-28T08:24:35.163Z,84.27
2019-04-28T08:25:34.123Z,83.95
2019-04-28T08:26:36.281Z,83.85
2019-04-28T08:27:39.091Z,83.71
2019-04-28T08:28:34.094Z,83.75
2019-04-28T08:29:34.103Z,83.75
2019-04-28T08:30:34.070Z,83.09
2019-04-28T08:31:34.053Z,83.64
2019-04-28T08:32:34.050Z,84.47
2019-04-28T08:33:34.030Z,83.23
2019-04-28T08:34:34.015Z,84.57
2019-04-28T08:35:34.028Z,84.06
2019-04-28T08:36:34.015Z,84.67
2019-04-28T08:37:33.978Z,84.78
2019-04-28T08:38:34.027Z,84.57
2019-04-28T08:39:33.972Z,84.78
2019-04-28T08:40:33.970Z,85.19
2019-04-28T08:41:33.966Z,85.60
2019-04-28T08:42:33.927Z,85.50
2019-04-28T08:43:33.917Z,85.81
2019-04-28T08:44:33.923Z,86.53
2019-04-28T08:45:33.890Z,86.22
2019-04-28T08:46:33.963Z,86.63
2019-04-28T08:47:33.913Z,86.53
2019-04-28T08:48:33.862Z,86.63
2019-04-28T08:49:33.880Z,86.94
2019-04-28T08:50:33.869Z,86.84
2019-04-28T08:51:33.825Z,86.43
2019-04-28T08:52:33.827Z,87.05
2019-04-28T08:53:33.846Z,87.15
2019-04-28T08:54:33.786Z,86.94
2019-04-28T08:55:33.779Z,87.56
2019-04-28T08:56:33.769Z,86.74
2019-04-28T08:57:33.773Z,87.15
2019-04-28T08:58:33.772Z,86.80
2019-04-28T08:59:33.731Z,87.15
2019-04-28T09:00:33.755Z,87.73
2019-04-28T09:01:33.712Z,87.77
2019-04-28T09:02:33.762Z,87.21
2019-04-28T09:03:33.701Z,87.63
2019-04-28T09:04:33.670Z,87.93
2019-04-28T09:05:33.683Z,87.11
2019-04-28T09:06:33.658Z,86.39
2019-04-28T09:07:33.659Z,86.18
2019-04-28T09:08:33.729Z,87.07
2019-04-28T09:09:33.771Z,87.27
2019-04-28T09:10:33.621Z,86.55
2019-04-28T09:11:33.640Z,86.35
2019-04-28T09:12:33.679Z,86.24
2019-04-28T09:13:33.680Z,85.63
2019-04-28T09:14:33.738Z,86.35
2019-04-28T09:15:33.739Z,86.55
2019-04-28T09:16:33.657Z,87.69
2019-04-28T09:17:33.538Z,86.04
2019-04-28T09:18:33.532Z,85.83
2019-04-28T09:19:33.787Z,85.73
2019-04-28T09:20:33.557Z,85.83
2019-04-28T09:21:33.538Z,86.24
2019-04-28T09:22:33.499Z,86.39
2019-04-28T09:23:33.544Z,87.48
2019-04-28T09:24:33.531Z,86.80
2019-04-28T09:25:33.544Z,86.39
2019-04-28T09:26:33.485Z,87.01
2019-04-28T09:27:44.286Z,86.90
2019-04-28T09:28:33.485Z,87.73
2019-04-28T09:29:33.412Z,88.04
2019-04-28T09:30:34.077Z,87.83
2019-04-28T09:31:33.553Z,89.07
2019-04-28T09:32:33.437Z,88.35
2019-04-28T09:33:33.594Z,87.32
2019-04-28T09:34:33.434Z,87.83
2019-04-28T09:35:33.343Z,87.73
2019-04-28T09:36:33.394Z,88.24
2019-04-28T09:37:34.367Z,87.63
2019-04-28T09:38:33.343Z,88.14
2019-04-28T09:39:33.320Z,88.56
2019-04-28T09:40:33.305Z,87.83
2019-04-28T09:41:33.421Z,86.80
2019-04-28T09:42:44.121Z,87.52
2019-04-28T09:43:33.951Z,87.83
2019-04-28T09:44:33.282Z,87.90
2019-04-28T09:45:33.280Z,87.17
2019-04-28T09:46:33.270Z,86.24
2019-04-28T09:47:33.266Z,86.66
2019-04-28T09:48:33.263Z,86.45
2019-04-28T09:49:33.236Z,86.00
2019-04-28T09:50:33.197Z,85.89
2019-04-28T09:51:33.249Z,86.00
2019-04-28T09:52:33.252Z,86.31
2019-04-28T09:53:33.297Z,85.73
2019-04-28T09:54:33.250Z,86.24
2019-04-28T09:55:33.136Z,86.45
2019-04-28T09:56:33.177Z,85.22
2019-04-28T09:57:33.114Z,86.35
2019-04-28T09:58:33.077Z,85.94
2019-04-28T09:59:33.086Z,85.77
2019-04-28T10:00:33.092Z,86.39
2019-04-28T10:01:33.175Z,86.70
2019-04-28T10:02:33.142Z,86.97
2019-04-28T10:03:33.119Z,87.63
2019-04-28T10:04:41.351Z,87.38
2019-04-28T10:05:33.990Z,86.90
2019-04-28T10:06:33.168Z,87.63
2019-04-28T10:07:33.051Z,87.69
2019-04-28T10:08:33.022Z,86.87
2019-04-28T10:09:33.062Z,87.73
2019-04-28T10:10:32.944Z,87.83
2019-04-28T10:11:32.986Z,87.73
2019-04-28T10:12:32.908Z,89.13
2019-04-28T10:13:32.940Z,88.82
2019-04-28T10:14:33.027Z,89.71
2019-04-28T10:15:32.998Z,88.57
2019-04-28T10:16:33.449Z,88.99
2019-04-28T10:17:32.937Z,88.64
2019-04-28T10:18:32.893Z,88.23
2019-04-28T10:19:32.847Z,86.27
2019-04-28T10:20:32.941Z,86.37
2019-04-28T10:21:33.027Z,87.77
2019-04-28T10:22:32.830Z,87.77
2019-04-28T10:23:32.892Z,86.43
2019-04-28T10:24:32.775Z,86.13
2019-04-28T10:25:32.900Z,85.71
2019-04-28T10:26:32.870Z,85.71
2019-04-28T10:27:32.856Z,84.99
2019-04-28T10:28:32.777Z,85.30
2019-04-28T10:29:33.767Z,86.13
2019-04-28T10:30:34.537Z,86.54
2019-04-28T10:31:32.817Z,84.62
2019-04-28T10:32:32.687Z,85.44
2019-04-28T10:33:32.785Z,85.30
2019-04-28T10:34:32.710Z,86.37
2019-04-28T10:35:32.637Z,85.34
2019-04-28T10:36:32.716Z,84.52
2019-04-28T10:37:32.639Z,84.21
2019-04-28T10:38:32.648Z,84.77
2019-04-28T10:39:32.599Z,85.59
2019-04-28T10:40:32.628Z,86.24
2019-04-28T10:41:32.623Z,85.89
2019-04-28T10:42:32.660Z,86.31
2019-04-28T10:43:32.568Z,86.41
2019-04-28T10:44:32.539Z,86.23
2019-04-28T10:45:32.535Z,85.51
2019-04-28T10:46:32.562Z,86.33
2019-04-28T10:47:32.507Z,86.64
2019-04-28T10:48:32.524Z,87.63
2019-04-28T10:49:32.497Z,85.88
2019-04-28T10:50:32.483Z,84.58
2019-04-28T10:51:32.492Z,84.99
2019-04-28T10:52:32.447Z,86.95
2019-04-28T10:53:32.453Z,85.16
2019-04-28T10:54:33.051Z,83.00
2019-04-28T10:55:32.951Z,83.62
2019-04-28T10:56:32.428Z,84.64
2019-04-28T10:57:32.387Z,84.34
2019-04-28T10:58:32.474Z,83.31
2019-04-28T10:59:32.370Z,83.31
2019-04-28T11:00:33.951Z,83.62
2019-04-28T11:01:32.358Z,83.72
2019-04-28T11:02:32.352Z,83.31
2019-04-28T11:03:32.360Z,82.86
2019-04-28T11:04:32.314Z,81.52
2019-04-28T11:05:32.293Z,80.80
2019-04-28T11:06:32.285Z,81.52
2019-04-28T11:07:32.271Z,81.21
2019-04-28T11:08:32.466Z,81.83
2019-04-28T11:09:32.262Z,83.48
2019-04-28T11:10:32.247Z,83.44
2019-04-28T11:11:33.006Z,83.03
2019-04-28T11:12:32.217Z,80.56
2019-04-28T11:13:32.266Z,81.24
2019-04-28T11:14:32.244Z,81.86
2019-04-28T11:15:32.219Z,82.68
2019-04-28T11:16:32.188Z,84.49
2019-04-28T11:17:32.171Z,80.49
2019-04-28T11:18:32.196Z,81.16
2019-04-28T11:19:32.179Z,82.26
2019-04-28T11:20:32.173Z,81.71
2019-04-28T11:21:32.119Z,83.00
2019-04-28T11:22:32.111Z,83.20
2019-04-28T11:23:32.157Z,81.43
2019-04-28T11:24:32.973Z,81.01
2019-04-28T11:25:32.109Z,79.99
2019-04-28T11:26:32.057Z,80.98
2019-04-28T11:27:32.060Z,77.50
2019-04-28T11:28:32.113Z,75.69
2019-04-28T11:29:32.047Z,75.79
2019-04-28T11:30:32.052Z,74.49
2019-04-28T11:31:32.118Z,76.54
2019-04-28T11:32:32.072Z,76.07
2019-04-28T11:33:31.981Z,76.37
2019-04-28T11:34:31.966Z,77.33
2019-04-28T11:35:31.951Z,76.10
2019-04-28T11:36:32.095Z,77.26
2019-04-28T11:37:31.959Z,77.84
2019-04-28T11:38:32.015Z,76.92
2019-04-28T11:39:31.950Z,76.51
2019-04-28T11:40:31.951Z,76.62
2019-04-28T11:41:32.610Z,75.90
2019-04-28T11:42:31.927Z,77.74
2019-04-28T11:43:31.907Z,80.10
2019-04-28T11:44:31.891Z,77.84
2019-04-28T11:45:31.973Z,78.05
2019-04-28T11:46:31.892Z,77.98
2019-04-28T11:47:31.834Z,77.78
2019-04-28T11:48:31.835Z,76.48
2019-04-28T11:49:31.824Z,77.51
2019-04-28T11:50:31.834Z,80.73
2019-04-28T11:51:31.802Z,81.76
2019-04-28T11:52:31.796Z,81.04
2019-04-28T11:53:31.831Z,81.82
2019-04-28T11:54:31.802Z,78.12
2019-04-28T11:55:31.728Z,76.17
2019-04-28T11:56:41.318Z,77.47
2019-04-28T11:57:47.655Z,77.92
2019-04-28T11:58:32.625Z,78.23
2019-04-28T11:59:31.752Z,77.81
2019-04-28T12:00:31.711Z,78.12
2019-04-28T12:01:31.732Z,78.70
2019-04-28T12:02:31.659Z,75.01
2019-04-28T12:03:31.666Z,77.26
2019-04-28T12:04:31.695Z,78.46
2019-04-28T12:05:34.593Z,76.41
2019-04-28T12:06:31.715Z,76.37
2019-04-28T12:07:31.588Z,76.14
2019-04-28T12:08:31.590Z,76.34
2019-04-28T12:09:31.588Z,74.15
2019-04-28T12:10:31.565Z,74.26
2019-04-28T12:11:31.619Z,73.74
2019-04-28T12:12:31.600Z,72.41
2019-04-28T12:13:31.517Z,72.28
2019-04-28T12:14:31.523Z,71.32
2019-04-28T12:15:31.586Z,70.61
2019-04-28T12:16:31.523Z,71.59
2019-04-28T12:17:34.964Z,72.52
2019-04-28T12:18:31.476Z,73.40
2019-04-28T12:19:31.637Z,73.20
2019-04-28T12:20:31.483Z,68.97
2019-04-28T12:21:31.441Z,68.22
2019-04-28T12:22:31.488Z,69.34
2019-04-28T12:23:31.954Z,69.17
2019-04-28T12:24:31.511Z,71.25
2019-04-28T12:25:31.398Z,72.58
2019-04-28T12:26:31.518Z,72.69
2019-04-28T12:27:31.525Z,68.76
2019-04-28T12:28:31.446Z,70.71
2019-04-28T12:29:31.409Z,70.29
2019-04-28T12:30:31.378Z,69.58
2019-04-28T12:31:31.378Z,69.27
2019-04-28T12:32:31.333Z,69.38
2019-04-28T12:33:31.428Z,70.29
2019-04-28T12:34:31.332Z,69.79
2019-04-28T12:35:31.271Z,71.83
2019-04-28T12:36:31.284Z,69.68
2019-04-28T12:37:31.302Z,69.17
2019-04-28T12:38:31.579Z,72.45
2019-04-28T12:39:31.253Z,72.65
2019-04-28T12:40:31.273Z,70.09
2019-04-28T12:41:31.232Z,70.81
2019-04-28T12:42:31.264Z,70.09
2019-04-28T12:43:31.282Z,70.40
2019-04-28T12:44:31.210Z,69.58
2019-04-28T12:45:35.270Z,69.27
2019-04-28T12:46:32.957Z,69.48
2019-04-28T12:47:31.958Z,70.09
2019-04-28T12:48:32.711Z,70.67
2019-04-28T12:49:31.166Z,70.47
2019-04-28T12:50:31.187Z,70.06
2019-04-28T12:51:31.136Z,70.16
2019-04-28T12:52:31.081Z,70.23